Time;durP1;ratioP1;P1;durP2;ratioP2;P2;SDS_P1;SDS_P2;PMS_P1;PMS_P2;Temp;Humidity;BMP_temperature;BMP_pressure;BME280_temperature;BME280_humidity;BME280_pressure;Samples;Min_cycle;Max_cycle;Signal;HPM_P1;HPM_P2
2022/05/25 00:00:10;;;;;;;0.80;0.57;;;;;;;10.67;89.55;98403.41;4992586;28;20578;-49
2022/05/25 00:02:40;;;;;;;2.17;0.67;;;;;;;10.69;89.73;98398.03;4992289;28;20303;-49
2022/05/25 00:05:09;;;;;;;3.70;0.70;;;;;;;10.65;88.58;98405.34;4992702;28;20222;-49
2022/05/25 00:07:36;;;;;;;3.00;0.70;;;;;;;10.68;88.88;98401.63;4991821;28;20231;-49
2022/05/25 00:10:05;;;;;;;4.97;0.70;;;;;;;10.68;89.91;98409.44;4992344;28;20273;-49
2022/05/25 00:12:32;;;;;;;3.27;0.60;;;;;;;10.66;91.73;98401.75;4992364;28;20222;-49
2022/05/25 00:14:59;;;;;;;2.77;0.70;;;;;;;10.63;90.54;98402.91;4988429;28;20226;-49
2022/05/25 00:17:25;;;;;;;3.57;0.60;;;;;;;10.68;90.32;98405.03;4992165;28;20219;-49
2022/05/25 00:20:00;;;;;;;1.07;0.70;;;;;;;10.69;91.16;98411.88;4988669;28;20328;-49
2022/05/25 00:22:47;;;;;;;1.13;0.50;;;;;;;10.67;91.74;98411.22;4991711;28;20736;-49
2022/05/25 00:25:18;;;;;;;0.70;0.63;;;;;;;10.71;92.05;98417.78;4991872;28;20194;-49
2022/05/25 00:27:45;;;;;;;2.90;0.70;;;;;;;10.66;91.11;98425.25;4992312;28;20208;-49
2022/05/25 00:30:14;;;;;;;1.67;0.50;;;;;;;10.68;90.61;98430.34;4991850;28;20206;-49
2022/05/25 00:32:41;;;;;;;2.10;0.63;;;;;;;10.65;91.19;98428.03;4992325;28;20216;-52
2022/05/25 00:35:12;;;;;;;2.43;0.60;;;;;;;10.61;91.21;98428.34;4991263;28;20304;-49
2022/05/25 00:37:40;;;;;;;1.80;0.70;;;;;;;10.60;91.62;98429.31;4992421;28;20237;-49
2022/05/25 00:40:10;;;;;;;1.10;0.57;;;;;;;10.60;90.09;98428.53;4992395;28;20194;-49
2022/05/25 00:42:39;;;;;;;3.53;0.60;;;;;;;10.61;90.86;98420.50;4992201;28;20240;-49
2022/05/25 00:45:07;;;;;;;2.93;0.40;;;;;;;10.63;91.60;98426.41;4994704;28;20662;-49
2022/05/25 00:47:38;;;;;;;3.20;0.50;;;;;;;10.63;91.50;98423.78;4995156;28;20654;-49
2022/05/25 00:50:06;;;;;;;4.37;0.60;;;;;;;10.63;90.99;98428.19;4991832;28;20186;-49
2022/05/25 00:52:33;;;;;;;0.97;0.60;;;;;;;10.61;91.20;98430.13;4995303;28;20228;-49
2022/05/25 00:55:04;;;;;;;2.93;0.80;;;;;;;10.61;91.33;98432.72;4971486;28;20213;-49
2022/05/25 00:57:35;;;;;;;0.70;0.50;;;;;;;10.63;90.30;98434.22;4993103;28;20284;-50
2022/05/25 01:00:10;;;;;;;4.20;0.60;;;;;;;10.61;90.77;98441.41;4988395;28;20201;-51
2022/05/25 01:02:43;;;;;;;1.07;0.50;;;;;;;10.62;90.32;98445.66;4993502;28;20578;-49
2022/05/25 01:05:12;;;;;;;0.60;0.47;;;;;;;10.59;90.17;98451.19;4993785;28;20669;-49
2022/05/25 01:07:55;;;;;;;4.13;0.70;;;;;;;10.61;91.06;98462.28;4993102;28;20196;-49
2022/05/25 01:10:36;;;;;;;4.33;0.57;;;;;;;10.64;91.28;98453.31;4991300;28;20657;-48
2022/05/25 01:13:13;;;;;;;2.83;0.53;;;;;;;10.61;90.46;98458.84;4991564;28;20225;-48
2022/05/25 01:15:52;;;;;;;0.87;0.50;;;;;;;10.64;90.38;98461.13;4989253;28;20224;-49
2022/05/25 01:18:27;;;;;;;3.07;0.60;;;;;;;10.66;90.11;98461.81;4993914;28;20203;-49
2022/05/25 01:20:58;;;;;;;1.97;1.20;;;;;;;10.68;91.00;98464.28;4992526;28;20276;-49
2022/05/25 01:23:54;;;;;;;1.43;0.57;;;;;;;10.70;89.94;98468.34;4974491;28;20280;-49
2022/05/25 01:26:52;;;;;;;2.55;0.60;;;;;;;10.72;91.07;98471.63;4976076;28;20536;-49
2022/05/25 01:29:46;;;;;;;2.37;0.50;;;;;;;10.70;89.63;98462.31;4975945;28;20197;-49
2022/05/25 01:32:19;;;;;;;2.00;0.50;;;;;;;10.71;91.11;98462.16;4986825;28;20237;-49
2022/05/25 01:34:54;;;;;;;4.37;1.47;;;;;;;10.72;91.49;98465.59;4994979;28;20202;-48
2022/05/25 01:37:28;;;;;;;4.30;0.67;;;;;;;10.72;91.86;98469.00;4993993;28;20866;-49
2022/05/25 01:40:01;;;;;;;1.20;0.60;;;;;;;10.71;91.54;98469.97;4990291;28;20280;-49
2022/05/25 01:42:34;;;;;;;1.83;0.70;;;;;;;10.72;91.23;98462.97;4988914;28;20205;-49
2022/05/25 01:45:08;;;;;;;5.77;0.40;;;;;;;10.69;88.99;98469.31;4993388;28;20570;-49
2022/05/25 01:47:36;;;;;;;4.53;0.60;;;;;;;10.73;89.85;98464.63;4991479;28;20204;-50
2022/05/25 01:50:06;;;;;;;1.63;0.70;;;;;;;10.74;90.85;98467.06;4993608;28;20192;-49
2022/05/25 01:52:40;;;;;;;6.00;0.60;;;;;;;10.76;90.72;98475.56;4993053;28;20212;-49
2022/05/25 01:55:29;;;;;;;6.07;0.60;;;;;;;10.73;90.36;98480.28;4993504;28;20579;-49
2022/05/25 01:58:02;;;;;;;2.77;0.50;;;;;;;10.72;89.51;98474.22;4993660;28;20241;-50
2022/05/25 02:00:34;;;;;;;3.40;0.50;;;;;;;10.74;90.70;98477.50;4993517;28;20194;-49
2022/05/25 02:05:57;;;;;;;3.27;0.60;;;;;;;10.78;88.12;98475.41;4993638;28;20205;-50
2022/05/25 02:08:36;;;;;;;1.03;0.60;;;;;;;10.80;88.68;98475.25;4993410;28;20211;-49
2022/05/25 02:11:15;;;;;;;1.23;0.50;;;;;;;10.76;90.48;98475.56;4993487;28;20196;-49
2022/05/25 02:13:56;;;;;;;3.87;0.60;;;;;;;10.72;90.02;98469.00;4993546;28;20197;-49
2022/05/25 02:16:36;;;;;;;1.73;0.53;;;;;;;10.70;90.83;98475.38;4993949;28;20218;-49
2022/05/25 02:19:09;;;;;;;5.10;0.60;;;;;;;10.63;91.61;98470.78;4976416;28;20565;-49
2022/05/25 02:21:47;;;;;;;0.70;0.60;;;;;;;10.71;87.88;98477.00;4993364;28;20228;-48
2022/05/25 02:24:20;;;;;;;2.90;0.68;;;;;;;10.76;89.10;98474.75;4993436;28;20487;-48
2022/05/25 02:26:52;;;;;;;2.20;0.50;;;;;;;10.75;89.84;98475.72;4993153;28;20247;-48
2022/05/25 02:29:24;;;;;;;2.93;0.60;;;;;;;10.71;88.39;98479.63;4975221;28;20211;-48
2022/05/25 02:31:56;;;;;;;6.03;0.60;;;;;;;10.65;89.06;98472.41;4988693;28;20620;-48
2022/05/25 02:34:26;;;;;;;8.87;1.47;;;;;;;10.59;90.82;98468.63;4993580;28;20654;-49
2022/05/25 02:36:55;;;;;;;3.33;0.50;;;;;;;10.49;91.33;98471.34;4993501;28;20197;-49
2022/05/25 02:39:22;;;;;;;2.43;0.50;;;;;;;10.42;91.41;98467.72;4993613;28;20202;-49
2022/05/25 02:41:52;;;;;;;2.27;0.67;;;;;;;10.36;91.43;98473.50;4975618;28;20616;-50
2022/05/25 02:44:20;;;;;;;0.70;0.50;;;;;;;10.31;90.59;98471.38;4993087;28;20572;-49
2022/05/25 02:46:47;;;;;;;0.40;0.40;;;;;;;10.28;90.02;98482.09;4992017;28;20196;-49
2022/05/25 02:49:17;;;;;;;2.07;0.70;;;;;;;10.27;89.07;98477.88;4993496;28;20208;-49
2022/05/25 02:51:45;;;;;;;6.50;0.57;;;;;;;10.27;88.62;98476.06;4992063;28;20218;-49
2022/05/25 02:54:12;;;;;;;1.27;0.63;;;;;;;10.26;87.13;98484.06;4992995;28;20193;-49
2022/05/25 02:56:40;;;;;;;2.10;0.60;;;;;;;10.13;87.30;98480.03;4992771;28;20223;-49
2022/05/25 02:59:06;;;;;;;3.47;0.70;;;;;;;10.06;88.79;98478.22;4992960;28;20201;-49
2022/05/25 03:01:34;;;;;;;1.43;0.60;;;;;;;9.96;89.77;98473.06;4992537;28;20224;-49
2022/05/25 03:04:00;;;;;;;2.43;0.80;;;;;;;9.87;90.81;98490.44;4993213;28;20259;-49
2022/05/25 03:06:29;;;;;;;2.00;1.13;;;;;;;9.80;90.46;98489.38;4992274;28;20197;-49
2022/05/25 03:08:56;;;;;;;3.27;0.63;;;;;;;9.74;93.69;98485.56;4993391;28;20647;-49
2022/05/25 03:11:24;;;;;;;4.30;0.60;;;;;;;9.71;92.74;98494.53;4992788;28;20215;-49
2022/05/25 03:13:51;;;;;;;1.50;0.70;;;;;;;9.63;91.21;98494.44;4986295;28;20227;-49
2022/05/25 03:16:20;;;;;;;3.33;0.80;;;;;;;9.60;91.68;98494.75;4989943;28;20229;-49
2022/05/25 03:18:48;;;;;;;1.03;0.60;;;;;;;9.65;92.57;98497.72;4993438;28;20330;-50
2022/05/25 03:21:14;;;;;;;3.23;0.70;;;;;;;9.72;91.53;98503.16;4992360;28;20232;-50
2022/05/25 03:23:43;;;;;;;1.37;0.60;;;;;;;9.73;90.17;98504.78;4992894;28;20681;-49
2022/05/25 03:26:11;;;;;;;4.60;0.80;;;;;;;9.67;nan;98501.00;4993164;28;20189;-49
2022/05/25 03:28:38;;;;;;;1.13;0.63;;;;;;;9.65;90.59;98504.72;4992811;28;20229;-50
2022/05/25 03:31:06;;;;;;;3.20;0.70;;;;;;;9.65;90.51;98515.13;4975315;28;20209;-50
2022/05/25 03:33:33;;;;;;;0.90;0.60;;;;;;;9.58;91.09;98518.31;4992475;28;20256;-49
2022/05/25 03:36:01;;;;;;;3.33;0.60;;;;;;;9.59;91.13;98525.19;4992638;28;20699;-50
2022/05/25 03:38:28;;;;;;;2.00;0.60;;;;;;;9.61;91.49;98532.88;4992871;28;20208;-48
2022/05/25 03:40:58;;;;;;;0.80;0.50;;;;;;;9.66;92.14;98535.00;4992557;28;20621;-48
2022/05/25 03:43:31;;;;;;;0.83;0.53;;;;;;;9.71;91.83;98543.22;4991940;28;20295;-48
2022/05/25 03:45:59;;;;;;;2.93;0.77;;;;;;;9.72;92.38;98540.47;4992589;28;20201;-50
2022/05/25 03:48:26;;;;;;;3.03;0.70;;;;;;;9.80;91.56;98547.53;4991382;28;20673;-48
2022/05/25 03:50:53;;;;;;;0.67;0.60;;;;;;;9.88;91.99;98550.25;4992230;28;20668;-48
2022/05/25 03:53:21;;;;;;;4.90;0.57;;;;;;;9.95;91.58;98560.91;4991735;28;20234;-48
2022/05/25 03:55:48;;;;;;;4.47;0.70;;;;;;;10.03;92.27;98558.38;4992252;28;20219;-48
2022/05/25 03:58:16;;;;;;;1.27;0.70;;;;;;;10.17;90.79;98569.22;4992321;28;20203;-49
2022/05/25 04:00:44;;;;;;;0.50;0.50;;;;;;;10.24;90.40;98569.47;4992457;28;20227;-49
2022/05/25 04:03:15;;;;;;;3.33;0.50;;;;;;;10.30;90.50;98569.69;4992205;28;20939;-49
2022/05/25 04:05:42;;;;;;;3.13;0.60;;;;;;;10.37;90.16;98572.53;4991867;28;20208;-49
2022/05/25 04:08:10;;;;;;;2.83;0.50;;;;;;;10.43;89.92;98585.00;4992364;28;20642;-49
2022/05/25 04:10:37;;;;;;;3.27;0.80;;;;;;;10.50;90.13;98587.00;4992319;28;20649;-49
2022/05/25 04:13:05;;;;;;;3.73;0.60;;;;;;;10.54;88.14;98596.97;4991985;28;20231;-50
2022/05/25 04:15:35;;;;;;;1.10;0.60;;;;;;;10.62;88.76;98593.59;4992173;28;20228;-49
2022/05/25 04:18:01;;;;;;;0.50;0.50;;;;;;;10.62;88.52;98599.66;4994045;28;20574;-49
2022/05/25 04:20:31;;;;;;;3.27;0.67;;;;;;;10.68;88.59;98598.22;4995915;28;20205;-49
2022/05/25 04:22:59;;;;;;;2.13;0.60;;;;;;;10.81;88.94;98602.22;4995963;28;20214;-49
2022/05/25 04:25:27;;;;;;;1.73;0.60;;;;;;;10.81;88.07;98605.66;4978664;28;20197;-49
2022/05/25 04:27:55;;;;;;;2.27;0.70;;;;;;;10.81;87.94;98612.66;4995405;28;20280;-49
2022/05/25 04:30:24;;;;;;;1.63;0.60;;;;;;;10.85;89.38;98608.78;4994611;28;20205;-49
2022/05/25 04:32:53;;;;;;;0.87;0.50;;;;;;;10.83;89.26;98602.88;4992654;28;20217;-49
2022/05/25 04:35:21;;;;;;;1.40;0.50;;;;;;;10.83;89.43;98611.56;4995865;28;20213;-49
2022/05/25 04:37:53;;;;;;;1.27;0.57;;;;;;;10.84;88.48;98609.75;4995710;28;20197;-49
2022/05/25 04:40:23;;;;;;;1.50;0.50;;;;;;;10.89;88.37;98610.09;4996022;28;20602;-49
2022/05/25 04:42:51;;;;;;;2.13;0.70;;;;;;;10.78;88.47;98612.00;4987968;28;20218;-49
2022/05/25 04:45:19;;;;;;;3.73;1.80;;;;;;;10.73;88.50;98605.59;4978604;28;20201;-50
2022/05/25 04:47:46;;;;;;;7.30;0.70;;;;;;;10.67;89.55;98611.44;4995702;28;20285;-49
2022/05/25 04:50:16;;;;;;;4.13;0.70;;;;;;;10.62;89.99;98604.88;4995245;28;21033;-49
2022/05/25 04:52:44;;;;;;;3.13;0.60;;;;;;;10.57;89.55;98607.13;4995424;28;20791;-49
2022/05/25 04:57:19;;;;;;;4.93;0.80;;;;;;;10.52;91.16;98611.16;4995243;28;21120;-49
2022/05/25 04:58:01;;;;;;;2.00;0.77;;;;;;;10.52;91.29;98614.56;4988824;28;20204;-49
2022/05/25 05:00:28;;;;;;;7.20;1.20;;;;;;;10.51;90.98;98617.34;4995855;28;20768;-49
2022/05/25 05:02:56;;;;;;;3.57;1.10;;;;;;;10.46;91.52;98618.63;4995817;28;20244;-49
2022/05/25 05:05:25;;;;;;;2.57;0.67;;;;;;;10.44;91.31;98622.34;4995832;28;20216;-49
2022/05/25 05:07:52;;;;;;;3.03;0.70;;;;;;;10.45;90.83;98619.59;4988086;28;20205;-49
2022/05/25 05:10:19;;;;;;;3.00;0.80;;;;;;;10.42;91.07;98619.88;4996396;28;20283;-49
2022/05/25 05:12:47;;;;;;;6.87;0.70;;;;;;;10.41;91.43;98623.47;4995874;28;20235;-49
2022/05/25 05:15:14;;;;;;;6.90;0.80;;;;;;;10.44;91.93;98624.94;4995808;28;20216;-49
2022/05/25 05:17:42;;;;;;;2.27;0.63;;;;;;;10.40;91.24;98631.44;4996251;28;20296;-49
2022/05/25 05:20:29;;;;;;;4.63;0.83;;;;;;;10.39;90.63;98632.38;4995644;28;20697;-49
2022/05/25 05:22:57;;;;;;;5.13;0.50;;;;;;;10.42;91.45;98634.72;4995525;28;20793;-49
2022/05/25 05:25:24;;;;;;;10.57;0.80;;;;;;;10.44;91.08;98636.22;4995524;28;20209;-49
2022/05/25 05:27:51;;;;;;;0.90;0.60;;;;;;;10.49;90.70;98640.97;4970436;28;20289;-50
2022/05/25 05:30:22;;;;;;;1.70;0.67;;;;;;;10.48;90.28;98634.13;4994811;28;20202;-49
2022/05/25 05:32:48;;;;;;;1.90;0.70;;;;;;;10.55;89.84;98644.78;4995022;28;20301;-49
2022/05/25 05:35:15;;;;;;;2.57;0.57;;;;;;;10.60;89.17;98635.53;4995356;28;20748;-49
2022/05/25 05:37:49;;;;;;;0.97;0.60;;;;;;;10.61;89.89;98639.78;4995510;28;20216;-49
2022/05/25 05:40:19;;;;;;;2.30;0.50;;;;;;;10.67;88.92;98645.38;4995360;28;20287;-49
2022/05/25 05:42:48;;;;;;;0.87;0.60;;;;;;;10.75;88.51;98648.03;4994688;28;20287;-49
2022/05/25 05:45:19;;;;;;;1.80;0.80;;;;;;;10.85;88.02;98655.78;4994597;28;20201;-49
2022/05/25 05:47:51;;;;;;;1.57;1.00;;;;;;;10.91;88.79;98650.78;4995056;28;20196;-49
2022/05/25 05:50:19;;;;;;;1.53;0.83;;;;;;;11.14;87.61;98662.50;4975487;28;20207;-49
2022/05/25 05:52:49;;;;;;;2.20;0.60;;;;;;;11.37;86.78;98668.88;4993893;28;20701;-49
2022/05/25 05:55:17;;;;;;;3.00;0.80;;;;;;;11.59;86.16;98663.25;4994827;28;20251;-50
2022/05/25 05:57:44;;;;;;;3.77;0.80;;;;;;;11.80;85.35;98665.44;4994077;28;20224;-49
2022/05/25 06:00:15;;;;;;;1.57;0.67;;;;;;;12.00;83.92;98671.28;4994697;28;20198;-49
2022/05/25 06:02:42;;;;;;;1.90;0.60;;;;;;;12.19;84.51;98670.19;4994053;28;20219;-49
2022/05/25 06:05:10;;;;;;;4.33;0.73;;;;;;;12.37;83.30;98677.09;4993447;28;20206;-49
2022/05/25 06:07:37;;;;;;;1.93;0.70;;;;;;;12.53;83.25;98676.28;4977106;28;20200;-49
2022/05/25 06:10:08;;;;;;;3.50;0.50;;;;;;;12.76;81.55;98684.31;4994213;28;20563;-51
2022/05/25 06:12:35;;;;;;;1.73;0.70;;;;;;;12.97;79.48;98683.84;4994039;28;20214;-49
2022/05/25 06:19:25;;;;;;;1.30;0.70;;;;;;;13.15;78.73;98690.69;4994359;28;20268;-49
2022/05/25 06:20:35;;;;;;;2.83;0.60;;;;;;;13.59;76.84;98699.97;4994034;28;20209;-48
2022/05/25 06:23:02;;;;;;;1.47;0.70;;;;;;;13.73;77.34;98698.44;4992009;28;20222;-49
2022/05/25 06:25:30;;;;;;;1.27;0.60;;;;;;;13.91;77.33;98702.66;4993814;28;20197;-49
2022/05/25 06:27:58;;;;;;;2.87;0.60;;;;;;;14.03;75.59;98709.16;4992737;28;20245;-49
2022/05/25 06:30:25;;;;;;;1.93;0.70;;;;;;;14.17;74.81;98704.97;4991939;28;20202;-49
2022/05/25 06:32:53;;;;;;;2.30;0.70;;;;;;;14.28;75.68;98704.59;4985714;28;20201;-49
2022/05/25 06:35:20;;;;;;;5.40;0.83;;;;;;;14.42;75.08;98702.22;4992706;28;20741;-49
2022/05/25 06:37:48;;;;;;;1.23;0.63;;;;;;;14.53;72.55;98703.63;4993605;28;20218;-49
2022/05/25 06:40:15;;;;;;;0.70;0.60;;;;;;;14.65;71.96;98712.72;4992833;28;20290;-50
2022/05/25 06:42:44;;;;;;;0.77;0.60;;;;;;;14.79;73.12;98716.44;4992364;28;20222;-49
2022/05/25 06:45:12;;;;;;;1.13;0.80;;;;;;;14.67;72.36;98721.25;4993621;28;20198;-51
2022/05/25 06:47:39;;;;;;;2.80;0.67;;;;;;;14.79;72.41;98720.88;4993377;28;20194;-49
2022/05/25 06:50:08;;;;;;;1.73;1.07;;;;;;;14.87;69.90;98719.00;4992457;28;20196;-49
2022/05/25 06:52:36;;;;;;;1.47;0.80;;;;;;;15.02;69.50;98731.38;4991199;28;20300;-49
2022/05/25 06:55:03;;;;;;;4.67;0.80;;;;;;;15.15;69.35;98734.22;4991958;28;20217;-49
2022/05/25 06:57:31;;;;;;;3.90;0.87;;;;;;;15.28;68.86;98733.63;4991992;28;20222;-49
2022/05/25 07:00:00;;;;;;;2.97;1.00;;;;;;;15.33;63.61;98735.69;4992139;28;20309;-49
2022/05/25 07:02:28;;;;;;;2.00;1.10;;;;;;;15.44;64.03;98739.69;4992100;28;20691;-50
2022/05/25 07:04:54;;;;;;;3.03;0.87;;;;;;;15.56;59.97;98747.97;4992466;28;20245;-49
2022/05/25 07:07:22;;;;;;;3.77;0.97;;;;;;;15.58;61.06;98753.88;4993093;28;20203;-50
2022/05/25 07:09:50;;;;;;;6.33;0.97;;;;;;;15.55;62.42;98757.69;4992350;28;20228;-49
2022/05/25 07:12:18;;;;;;;3.40;0.90;;;;;;;15.56;61.81;98761.94;4992076;28;20215;-49
2022/05/25 07:14:46;;;;;;;1.53;0.77;;;;;;;15.81;62.20;98760.88;4975049;28;20303;-49
2022/05/25 07:17:14;;;;;;;2.13;1.20;;;;;;;15.90;60.59;98770.34;4992046;28;20228;-49
2022/05/25 07:19:42;;;;;;;2.77;0.73;;;;;;;16.06;59.77;98777.25;4991821;28;20653;-49
2022/05/25 07:22:10;;;;;;;3.17;1.00;;;;;;;16.13;60.33;98772.88;4992073;28;20225;-49
2022/05/25 07:24:38;;;;;;;4.87;1.63;;;;;;;16.26;59.27;98781.94;4991542;28;20263;-49
2022/05/25 07:27:05;;;;;;;2.67;1.13;;;;;;;16.22;59.42;98770.94;4991960;28;20207;-49
2022/05/25 07:29:32;;;;;;;3.77;1.30;;;;;;;16.22;56.74;98773.59;4991386;28;20200;-49
2022/05/25 07:32:03;;;;;;;1.70;0.90;;;;;;;16.30;55.78;98777.94;4973517;28;20224;-49
2022/05/25 07:34:38;;;;;;;2.63;0.83;;;;;;;16.20;56.59;98775.59;4990792;28;20203;-49
2022/05/25 07:37:10;;;;;;;5.27;1.00;;;;;;;16.16;58.64;98783.03;4991685;28;20243;-49
2022/05/25 07:39:42;;;;;;;1.83;1.00;;;;;;;16.22;56.35;98781.47;4991477;28;20592;-49
2022/05/25 07:42:12;;;;;;;2.07;0.90;;;;;;;16.18;57.01;98781.06;4991031;28;20227;-49
2022/05/25 07:44:44;;;;;;;3.53;0.80;;;;;;;16.27;58.26;98781.75;4989898;28;20202;-49
2022/05/25 07:47:12;;;;;;;2.23;0.93;;;;;;;16.41;56.63;98792.44;4974337;28;20201;-49
2022/05/25 07:49:41;;;;;;;3.53;1.20;;;;;;;16.31;56.13;98793.56;4990369;28;20568;-49
2022/05/25 07:52:10;;;;;;;4.20;1.20;;;;;;;16.40;58.07;98782.91;4977347;28;20232;-49
2022/05/25 07:54:37;;;;;;;2.63;1.00;;;;;;;16.53;57.12;98789.13;4991536;28;20243;-50
2022/05/25 07:57:04;;;;;;;3.87;1.13;;;;;;;16.65;57.97;98783.38;4992331;28;20220;-50
2022/05/25 07:59:31;;;;;;;6.33;1.20;;;;;;;16.67;58.95;98784.84;4992563;28;20192;-49
2022/05/25 08:07:36;;;;;;;4.10;1.00;;;;;;;16.81;53.66;98790.25;4991996;28;20196;-50
2022/05/25 08:10:07;;;;;;;3.30;0.90;;;;;;;16.68;52.55;98785.66;4992492;28;20193;-50
2022/05/25 08:12:36;;;;;;;3.17;0.70;;;;;;;16.52;50.89;98790.13;4990766;28;20224;-49
2022/05/25 08:15:03;;;;;;;2.93;1.10;;;;;;;16.39;52.09;98790.00;4991657;28;20231;-49
2022/05/25 08:17:31;;;;;;;2.07;0.70;;;;;;;16.51;53.24;98785.06;4991336;28;20608;-49
2022/05/25 08:19:59;;;;;;;1.33;0.70;;;;;;;16.63;53.14;98786.22;4992021;28;20636;-50
2022/05/25 08:22:26;;;;;;;2.57;0.90;;;;;;;16.68;52.20;98780.38;4991581;28;20578;-48
2022/05/25 08:24:53;;;;;;;3.87;0.80;;;;;;;16.62;54.57;98787.22;4991947;28;20244;-49
2022/05/25 08:27:20;;;;;;;1.83;1.00;;;;;;;16.76;52.18;98785.53;4991080;28;20662;-49
2022/05/25 08:29:47;;;;;;;2.20;0.63;;;;;;;16.66;52.27;98775.31;4987741;28;20284;-49
2022/05/25 08:32:14;;;;;;;5.13;0.97;;;;;;;16.86;53.15;98782.63;4990971;28;20224;-49
2022/05/25 08:34:43;;;;;;;1.63;0.60;;;;;;;16.94;50.16;98776.38;4990731;28;20692;-49
2022/05/25 08:37:12;;;;;;;3.60;1.30;;;;;;;16.99;50.14;98774.03;4991236;28;20502;-48
2022/05/25 08:39:57;;;;;;;3.43;0.80;;;;;;;17.15;50.28;98785.34;4984039;28;20323;-49
2022/05/25 08:42:27;;;;;;;3.20;0.90;;;;;;;17.20;51.27;98783.75;4973540;28;20218;-49
2022/05/25 08:44:57;;;;;;;3.17;0.80;;;;;;;17.22;51.71;98783.56;4973574;28;20253;-49
2022/05/25 08:47:24;;;;;;;3.43;0.97;;;;;;;17.24;49.32;98779.72;4991467;28;20202;-49
2022/05/25 08:49:52;;;;;;;3.40;0.90;;;;;;;17.32;49.37;98785.88;4990725;28;20276;-49
2022/05/25 08:52:25;;;;;;;3.70;0.70;;;;;;;17.38;48.27;98790.38;4988142;28;20677;-49
2022/05/25 08:54:52;;;;;;;4.07;1.10;;;;;;;17.19;48.09;98786.59;4990652;28;20190;-49
2022/05/25 08:57:25;;;;;;;2.00;0.77;;;;;;;17.28;49.17;98782.81;4991392;28;20570;-49
2022/05/25 08:59:54;;;;;;;2.47;0.93;;;;;;;17.32;49.05;98791.97;4991173;28;20281;-49
2022/05/25 09:02:28;;;;;;;2.93;0.90;;;;;;;17.09;49.47;98789.53;4991216;28;20777;-49
2022/05/25 09:05:04;;;;;;;2.67;0.87;;;;;;;17.14;50.38;98792.41;4985358;28;20253;-49
2022/05/25 09:07:39;;;;;;;3.50;0.90;;;;;;;17.41;50.09;98798.75;4994509;28;20374;-49
2022/05/25 09:10:09;;;;;;;3.63;0.70;;;;;;;17.70;47.03;98790.81;4994963;28;20230;-49
2022/05/25 09:12:40;;;;;;;3.43;1.10;;;;;;;17.59;45.22;98792.16;4994440;28;20222;-49
2022/05/25 09:15:13;;;;;;;1.20;0.60;;;;;;;17.46;46.78;98789.44;4994768;28;20278;-49
2022/05/25 09:17:45;;;;;;;4.03;1.00;;;;;;;17.44;48.66;98788.81;4994227;28;20301;-49
2022/05/25 09:20:15;;;;;;;1.00;0.70;;;;;;;17.30;49.95;98793.16;4976980;28;20210;-49
2022/05/25 09:22:44;;;;;;;3.17;0.87;;;;;;;17.55;48.18;98794.38;4994116;28;20227;-49
2022/05/25 09:25:13;;;;;;;3.85;1.10;;;;;;;17.73;47.53;98790.44;4992666;28;21048;-49
2022/05/25 09:27:44;;;;;;;5.00;0.83;;;;;;;17.99;47.38;98795.09;4994477;28;20566;-49
2022/05/25 09:30:12;;;;;;;4.70;0.90;;;;;;;17.96;48.54;98795.44;4994296;28;20196;-49
2022/05/25 09:32:48;;;;;;;2.93;0.80;;;;;;;18.03;48.36;98797.34;4994228;28;20243;-49
2022/05/25 09:35:20;;;;;;;3.07;0.80;;;;;;;17.99;46.16;98805.66;4994363;28;20197;-49
2022/05/25 09:37:56;;;;;;;1.97;0.47;;;;;;;18.03;43.14;98807.91;4993982;28;20233;-49
2022/05/25 09:40:25;;;;;;;1.00;0.70;;;;;;;17.77;44.80;98809.34;4994003;28;20269;-49
2022/05/25 09:42:55;;;;;;;3.53;0.90;;;;;;;17.56;44.22;98809.19;4993602;28;20301;-49
2022/05/25 09:45:23;;;;;;;6.07;1.10;;;;;;;17.75;47.03;98806.06;4992535;28;20200;-49
2022/05/25 09:47:52;;;;;;;2.43;0.80;;;;;;;18.07;45.25;98817.88;4975947;28;20195;-49
2022/05/25 09:50:30;;;;;;;2.90;0.93;;;;;;;18.15;44.22;98814.25;4993035;28;20203;-49
2022/05/25 09:53:02;;;;;;;3.20;1.10;;;;;;;18.47;46.62;98819.91;4967029;28;20227;-49
2022/05/25 09:55:34;;;;;;;2.90;1.10;;;;;;;18.56;46.89;98820.53;4989837;28;20208;-49
2022/05/25 09:58:04;;;;;;;5.03;1.07;;;;;;;18.82;46.54;98826.91;4993334;28;20297;-49
2022/05/25 10:00:43;;;;;;;2.70;0.97;;;;;;;19.17;44.15;98824.97;4993190;28;20366;-49
2022/05/25 10:03:13;;;;;;;4.23;1.10;;;;;;;19.13;43.38;98818.47;4993160;28;20219;-49
2022/05/25 10:05:53;;;;;;;4.27;0.97;;;;;;;19.35;43.31;98826.22;4992582;28;20582;-49
2022/05/25 10:08:28;;;;;;;1.90;1.07;;;;;;;19.42;44.03;98832.31;4992848;28;20252;-49
2022/05/25 10:11:31;;;;;;;2.07;1.00;;;;;;;19.47;43.58;98829.88;4993309;28;20208;-49
2022/05/25 10:14:17;;;;;;;4.13;1.20;;;;;;;19.29;43.11;98827.81;4993076;28;20194;-49
2022/05/25 10:16:45;;;;;;;1.67;0.90;;;;;;;19.32;44.70;98823.97;4992946;28;20246;-49
2022/05/25 10:19:14;;;;;;;4.33;1.30;;;;;;;19.23;42.09;98825.97;4992631;28;20249;-49
2022/05/25 10:22:00;;;;;;;1.80;0.83;;;;;;;19.26;43.29;98817.66;4992988;28;20293;-49
2022/05/25 10:24:40;;;;;;;7.80;1.20;;;;;;;19.38;42.97;98822.34;4992598;28;20214;-49
2022/05/25 10:27:22;;;;;;;2.90;1.10;;;;;;;19.66;43.78;98816.81;4993022;28;20194;-49
2022/05/25 10:38:24;;;;;;;4.30;1.00;;;;;;;20.47;42.04;98814.78;4981464;28;20254;-49
2022/05/25 10:40:52;;;;;;;2.43;1.10;;;;;;;20.44;40.62;98806.47;4989767;28;20211;-49
2022/05/25 10:43:26;;;;;;;2.80;0.90;;;;;;;20.29;41.47;98804.06;4992543;28;20208;-49
2022/05/25 10:45:55;;;;;;;1.83;0.93;;;;;;;19.96;41.97;98810.28;4984576;28;20296;-49
2022/05/25 10:48:38;;;;;;;1.20;0.70;;;;;;;19.79;42.98;98807.22;4993220;28;20529;-49
2022/05/25 10:51:09;;;;;;;4.07;1.20;;;;;;;19.80;40.96;98807.03;4985744;28;20721;-49
2022/05/25 10:53:43;;;;;;;3.00;1.10;;;;;;;19.79;41.98;98804.56;4986380;28;20200;-49
2022/05/25 10:56:22;;;;;;;2.37;0.97;;;;;;;19.83;40.71;98797.84;4987567;28;20204;-49
2022/05/25 10:59:15;;;;;;;4.30;1.30;;;;;;;19.06;41.58;98785.09;4986887;28;20304;-49
2022/05/25 11:01:57;;;;;;;4.37;1.33;;;;;;;18.92;43.33;98790.31;4979755;28;20235;-49
2022/05/25 11:04:44;;;;;;;1.80;0.83;;;;;;;19.01;44.47;98790.97;4991935;28;20193;-51
2022/05/25 11:07:26;;;;;;;4.20;1.30;;;;;;;19.16;40.93;98785.47;4974486;28;20219;-49
2022/05/25 11:10:09;;;;;;;3.73;1.07;;;;;;;18.88;41.25;98789.09;4990928;28;20195;-49
2022/05/25 11:12:46;;;;;;;4.67;0.80;;;;;;;19.20;41.65;98784.06;4974227;28;20723;-49
2022/05/25 11:15:23;;;;;;;2.97;0.87;;;;;;;19.30;40.19;98787.09;4992217;28;20599;-49
2022/05/25 11:18:07;;;;;;;2.57;1.00;;;;;;;19.51;40.75;98792.41;4974368;28;20575;-49
2022/05/25 11:20:44;;;;;;;1.73;0.83;;;;;;;19.58;41.18;98793.22;4991237;28;20287;-49
2022/05/25 11:23:44;;;;;;;4.27;0.90;;;;;;;19.67;40.16;98801.75;4991243;28;20223;-49
2022/05/25 11:26:25;;;;;;;1.40;0.80;;;;;;;19.89;40.83;98794.41;4968758;28;20299;-49
2022/05/25 11:28:59;;;;;;;4.40;0.90;;;;;;;20.01;41.15;98808.63;4974312;28;20201;-49
2022/05/25 11:31:35;;;;;;;3.30;0.90;;;;;;;19.98;40.63;98808.25;4991448;28;20230;-49
2022/05/25 11:34:20;;;;;;;3.47;1.30;;;;;;;19.96;40.00;98802.34;4991480;28;20202;-49
2022/05/25 11:37:12;;;;;;;2.73;0.90;;;;;;;19.82;40.23;98799.69;4973902;28;20202;-49
2022/05/25 11:39:52;;;;;;;7.13;0.97;;;;;;;20.07;40.59;98804.34;4991577;28;20199;-49
2022/05/25 11:42:57;;;;;;;1.97;0.90;;;;;;;20.24;42.12;98796.75;4991462;28;20295;-49
2022/05/25 11:45:37;;;;;;;3.23;0.83;;;;;;;20.42;39.61;98800.56;4991406;28;20195;-49
2022/05/25 11:48:20;;;;;;;4.67;1.13;;;;;;;20.55;40.64;98797.03;4991563;28;20206;-49
2022/05/25 11:50:54;;;;;;;2.60;0.83;;;;;;;20.55;39.27;98803.16;4991392;28;20191;-49
2022/05/25 11:53:47;;;;;;;1.77;0.90;;;;;;;20.57;39.27;98803.75;4991369;28;20591;-49
2022/05/25 11:56:29;;;;;;;2.73;1.20;;;;;;;20.68;38.60;98799.59;4988212;28;20217;-49
2022/05/25 11:59:14;;;;;;;1.97;0.90;;;;;;;20.84;39.61;98789.56;4982076;28;20308;-49
2022/05/25 12:01:53;;;;;;;2.67;1.17;;;;;;;20.88;38.75;98796.06;4991591;28;20222;-49
2022/05/25 12:04:42;;;;;;;2.17;0.80;;;;;;;21.01;40.84;98797.78;4991886;28;20571;-49
2022/05/25 12:07:21;;;;;;;3.93;1.03;;;;;;;21.48;39.66;98805.38;4986043;28;20193;-49
2022/05/25 12:10:10;;;;;;;2.17;0.80;;;;;;;21.46;37.03;98797.66;4991322;28;20234;-49
2022/05/25 12:12:42;;;;;;;1.77;0.80;;;;;;;21.27;39.09;98795.97;4991060;28;20228;-49
2022/05/25 12:15:19;;;;;;;4.03;1.30;;;;;;;21.05;38.08;98805.13;4991536;28;20203;-49